Time;durP1;ratioP1;P1;durP2;ratioP2;P2;SDS_P1;SDS_P2;PMS_P1;PMS_P2;Temp;Humidity;BMP_temperature;BMP_pressure;BME280_temperature;BME280_humidity;BME280_pressure;Samples;Min_cycle;Max_cycle;Signal;HPM_P1;HPM_P2
2021/05/04 00:00:07;;;;;;;;;;;18.60;59.80;;;;;;5074666;28;1271;-64
2021/05/04 00:02:33;;;;;;;;;;;18.50;59.80;;;;;;5075330;28;1961;-65
2021/05/04 00:04:58;;;;;;;;;;;18.60;59.90;;;;;;5094114;28;1048;-64
2021/05/04 00:07:24;;;;;;;;;;;18.50;59.80;;;;;;5093999;28;1154;-64
2021/05/04 00:09:49;;;;;;;;;;;18.50;59.80;;;;;;5094404;28;1278;-64
2021/05/04 00:12:14;;;;;;;;;;;18.50;59.80;;;;;;5094218;28;1118;-64
2021/05/04 00:14:40;;;;;;;;;;;18.50;59.80;;;;;;5083733;28;1165;-64
2021/05/04 00:17:05;;;;;;;;;;;18.50;59.90;;;;;;5073510;28;1099;-64
2021/05/04 00:19:31;;;;;;;;;;;18.50;59.90;;;;;;5053998;28;1317;-64
2021/05/04 00:21:57;;;;;;;;;;;18.50;59.90;;;;;;5087674;28;1910;-64
2021/05/04 00:24:22;;;;;;;;;;;18.50;59.90;;;;;;5094178;28;1124;-64
2021/05/04 00:26:47;;;;;;;;;;;18.50;59.90;;;;;;5093809;28;1099;-64
2021/05/04 00:29:13;;;;;;;;;;;18.50;59.90;;;;;;5094009;28;1127;-64
2021/05/04 00:31:38;;;;;;;;;;;18.50;59.90;;;;;;5093722;28;1208;-64
2021/05/04 00:34:04;;;;;;;;;;;18.50;59.90;;;;;;5093945;28;1055;-65
2021/05/04 00:36:29;;;;;;;;;;;18.50;59.90;;;;;;5055829;28;1135;-64
2021/05/04 00:38:56;;;;;;;;;;;18.50;60.00;;;;;;5073665;28;933;-64
2021/05/04 00:41:21;;;;;;;;;;;18.50;60.00;;;;;;5073814;28;1280;-64
2021/05/04 00:43:47;;;;;;;;;;;18.50;60.00;;;;;;5073475;28;1926;-64
2021/05/04 00:46:12;;;;;;;;;;;18.50;60.00;;;;;;5073029;28;1072;-64
2021/05/04 00:48:37;;;;;;;;;;;18.50;60.00;;;;;;5073388;28;1056;-63
2021/05/04 00:51:03;;;;;;;;;;;18.50;60.00;;;;;;5075465;28;1268;-64
2021/05/04 00:53:29;;;;;;;;;;;18.50;60.00;;;;;;5093592;28;1118;-63
2021/05/04 00:55:55;;;;;;;;;;;18.50;60.00;;;;;;5093051;28;1043;-64
2021/05/04 00:58:20;;;;;;;;;;;18.50;60.00;;;;;;5075619;28;1594;-64
2021/05/04 01:00:46;;;;;;;;;;;18.50;60.00;;;;;;5093039;28;1370;-64
2021/05/04 01:03:11;;;;;;;;;;;18.50;60.00;;;;;;5064069;28;1894;-64
2021/05/04 01:05:37;;;;;;;;;;;18.50;60.00;;;;;;5054698;28;1084;-63
2021/05/04 01:08:02;;;;;;;;;;;18.50;60.10;;;;;;5071816;28;1290;-64
2021/05/04 01:10:28;;;;;;;;;;;18.50;60.10;;;;;;5072868;28;1310;-64
2021/05/04 01:12:53;;;;;;;;;;;18.50;60.10;;;;;;5081048;28;1068;-64
2021/05/04 01:15:19;;;;;;;;;;;18.50;60.10;;;;;;5058610;28;1094;-63
2021/05/04 01:17:44;;;;;;;;;;;18.50;60.10;;;;;;5054498;28;1147;-63
2021/05/04 01:20:10;;;;;;;;;;;18.50;60.10;;;;;;5069746;28;1290;-63
2021/05/04 01:22:35;;;;;;;;;;;18.40;60.00;;;;;;5092774;28;1957;-64
2021/05/04 01:25:01;;;;;;;;;;;18.50;60.10;;;;;;5092706;28;1063;-63
2021/05/04 01:27:26;;;;;;;;;;;18.50;60.10;;;;;;5074526;28;1119;-64
2021/05/04 01:29:52;;;;;;;;;;;18.40;60.10;;;;;;5092640;28;1263;-64
2021/05/04 01:32:17;;;;;;;;;;;18.40;60.10;;;;;;5074656;28;1150;-64
2021/05/04 01:34:43;;;;;;;;;;;18.40;60.10;;;;;;5088226;28;1114;-63
2021/05/04 01:37:08;;;;;;;;;;;18.40;60.10;;;;;;5072162;28;1154;-63
2021/05/04 01:39:41;;;;;;;;;;;18.40;60.10;;;;;;5072186;28;1272;-63
2021/05/04 01:42:06;;;;;;;;;;;18.40;60.10;;;;;;5054600;28;2290;-63
2021/05/04 01:44:31;;;;;;;;;;;18.40;60.10;;;;;;5072036;28;1044;-64
2021/05/04 01:46:57;;;;;;;;;;;18.40;60.10;;;;;;5054119;28;1135;-64
2021/05/04 01:49:22;;;;;;;;;;;18.40;60.20;;;;;;5054169;28;1123;-64
2021/05/04 01:51:48;;;;;;;;;;;18.40;60.10;;;;;;5072073;28;1345;-64
2021/05/04 01:54:13;;;;;;;;;;;18.40;60.10;;;;;;5072209;28;1020;-64
2021/05/04 01:56:39;;;;;;;;;;;18.40;60.20;;;;;;5053971;28;1060;-64
2021/05/04 01:59:05;;;;;;;;;;;18.40;60.20;;;;;;5054356;28;1056;-64
2021/05/04 02:01:31;;;;;;;;;;;18.40;60.20;;;;;;5071841;28;1341;-63
2021/05/04 02:03:56;;;;;;;;;;;18.40;60.20;;;;;;5069457;28;1910;-64
2021/05/04 02:06:22;;;;;;;;;;;18.40;60.20;;;;;;5073727;28;1051;-64
2021/05/04 02:08:47;;;;;;;;;;;18.40;60.20;;;;;;5092254;28;1157;-64
2021/05/04 02:11:13;;;;;;;;;;;18.40;60.20;;;;;;5092104;28;1286;-64
2021/05/04 02:13:38;;;;;;;;;;;18.40;60.20;;;;;;5090047;28;1106;-64
2021/05/04 02:16:04;;;;;;;;;;;18.40;61.00;;;;;;5071843;28;1015;-64
2021/05/04 02:18:29;;;;;;;;;;;18.40;60.20;;;;;;5072050;28;1048;-64
2021/05/04 02:20:55;;;;;;;;;;;18.40;60.20;;;;;;5070152;28;1298;-63
2021/05/04 02:23:20;;;;;;;;;;;18.40;60.20;;;;;;5077066;28;1918;-64
2021/05/04 02:25:46;;;;;;;;;;;18.40;60.20;;;;;;5070578;28;1188;-64
2021/05/04 02:28:12;;;;;;;;;;;18.40;60.20;;;;;;5067195;28;1248;-64
2021/05/04 02:30:37;;;;;;;;;;;18.40;60.30;;;;;;5067980;28;1272;-64
2021/05/04 02:33:02;;;;;;;;;;;18.40;60.30;;;;;;5072593;28;1220;-64
2021/05/04 02:35:28;;;;;;;;;;;18.40;60.30;;;;;;5052321;28;1279;-64
2021/05/04 02:37:53;;;;;;;;;;;18.30;60.20;;;;;;5065869;28;1267;-64
2021/05/04 02:40:19;;;;;;;;;;;18.40;60.30;;;;;;5068158;28;1290;-64
2021/05/04 02:42:44;;;;;;;;;;;18.40;60.30;;;;;;5067237;28;1953;-64
2021/05/04 02:45:10;;;;;;;;;;;18.40;60.30;;;;;;5051842;28;1216;-64
2021/05/04 02:47:35;;;;;;;;;;;18.30;60.20;;;;;;5066973;28;1295;-65
2021/05/04 02:50:01;;;;;;;;;;;18.30;60.20;;;;;;5071589;28;1353;-65
2021/05/04 02:52:26;;;;;;;;;;;18.30;60.20;;;;;;5048394;28;1256;-66
2021/05/04 02:54:51;;;;;;;;;;;18.30;60.30;;;;;;5069269;28;1274;-65
2021/05/04 02:57:18;;;;;;;;;;;18.30;60.30;;;;;;5069143;28;1235;-66
2021/05/04 02:59:43;;;;;;;;;;;18.30;60.30;;;;;;5066197;28;1256;-66
2021/05/04 03:02:09;;;;;;;;;;;18.30;60.30;;;;;;5065710;28;1961;-66
2021/05/04 03:04:34;;;;;;;;;;;18.30;60.30;;;;;;5055031;28;1232;-65
2021/05/04 03:06:59;;;;;;;;;;;18.30;60.30;;;;;;5072204;28;1138;-66
2021/05/04 03:09:25;;;;;;;;;;;18.30;60.30;;;;;;5072356;28;1079;-66
2021/05/04 03:11:50;;;;;;;;;;;18.30;60.30;;;;;;5072325;28;1337;-66
2021/05/04 03:14:16;;;;;;;;;;;18.30;60.30;;;;;;5072208;28;1252;-66
2021/05/04 03:16:41;;;;;;;;;;;18.30;60.30;;;;;;5071865;28;1111;-66
2021/05/04 03:19:07;;;;;;;;;;;18.30;60.30;;;;;;5054681;28;1107;-65
2021/05/04 03:21:32;;;;;;;;;;;18.30;60.30;;;;;;5081335;28;1378;-67
2021/05/04 03:23:57;;;;;;;;;;;18.30;60.40;;;;;;5092678;28;1894;-65
2021/05/04 03:26:23;;;;;;;;;;;18.30;60.30;;;;;;5092097;28;1050;-65
2021/05/04 03:28:48;;;;;;;;;;;18.30;60.30;;;;;;5092182;28;1206;-65
2021/05/04 03:31:14;;;;;;;;;;;18.30;60.40;;;;;;5074105;28;1230;-66
2021/05/04 03:33:39;;;;;;;;;;;18.30;60.40;;;;;;5092332;28;1139;-65
2021/05/04 03:36:05;;;;;;;;;;;18.30;60.30;;;;;;5092087;28;1027;-66
2021/05/04 03:38:30;;;;;;;;;;;18.30;60.30;;;;;;5057477;28;1255;-65
2021/05/04 03:40:56;;;;;;;;;;;18.30;60.30;;;;;;5075950;28;1298;-66
2021/05/04 03:43:21;;;;;;;;;;;18.30;60.30;;;;;;5095712;28;1906;-66
2021/05/04 03:45:47;;;;;;;;;;;18.30;60.30;;;;;;5095439;28;1161;-66
2021/05/04 03:48:12;;;;;;;;;;;18.30;60.30;;;;;;5095814;28;1174;-66
2021/05/04 03:50:37;;;;;;;;;;;18.40;60.30;;;;;;5077576;28;1390;-67
2021/05/04 03:53:03;;;;;;;;;;;18.40;60.20;;;;;;5096142;28;1146;-66
2021/05/04 03:55:28;;;;;;;;;;;18.40;60.20;;;;;;5095341;28;1094;-66
2021/05/04 03:57:54;;;;;;;;;;;18.40;60.10;;;;;;5095622;28;1063;-66
2021/05/04 04:00:19;;;;;;;;;;;18.40;60.10;;;;;;5095296;28;1345;-66
2021/05/04 04:02:45;;;;;;;;;;;18.40;60.10;;;;;;5069846;28;1902;-66
2021/05/04 04:05:11;;;;;;;;;;;18.40;60.00;;;;;;5074961;28;1135;-66
2021/05/04 04:07:36;;;;;;;;;;;18.50;60.00;;;;;;5057332;28;1124;-67
2021/05/04 04:10:02;;;;;;;;;;;18.50;60.00;;;;;;5075114;28;1275;-66
2021/05/04 04:12:27;;;;;;;;;;;18.50;60.00;;;;;;5075076;28;1096;-66
2021/05/04 04:14:56;;;;;;;;;;;18.50;60.00;;;;;;5074814;28;1185;-66
2021/05/04 04:17:21;;;;;;;;;;;18.50;59.90;;;;;;5074817;28;1127;-66
2021/05/04 04:19:47;;;;;;;;;;;18.50;59.90;;;;;;5071039;28;1376;-65
2021/05/04 04:22:12;;;;;;;;;;;18.50;59.90;;;;;;5056940;28;1965;-65
2021/05/04 04:24:37;;;;;;;;;;;18.50;59.90;;;;;;5057027;28;1099;-65
2021/05/04 04:27:03;;;;;;;;;;;18.50;59.80;;;;;;5074411;28;1099;-66
2021/05/04 04:29:29;;;;;;;;;;;18.50;59.80;;;;;;5074728;28;1351;-67
2021/05/04 04:31:55;;;;;;;;;;;18.50;59.80;;;;;;5074867;28;1107;-66
2021/05/04 04:34:20;;;;;;;;;;;18.50;59.80;;;;;;5073011;28;1215;-66
2021/05/04 04:36:46;;;;;;;;;;;18.50;59.80;;;;;;5074244;28;1186;-66
2021/05/04 04:39:11;;;;;;;;;;;18.50;59.80;;;;;;5074648;28;1077;-67
2021/05/04 04:41:37;;;;;;;;;;;18.50;59.80;;;;;;5056404;28;1286;-66
2021/05/04 04:44:05;;;;;;;;;;;18.50;59.70;;;;;;5074323;28;1914;-66
2021/05/04 04:46:40;;;;;;;;;;;18.50;59.70;;;;;;5074207;28;1167;-66
2021/05/04 04:49:06;;;;;;;;;;;18.50;59.70;;;;;;5074962;28;1210;-66
2021/05/04 04:51:32;;;;;;;;;;;18.50;59.70;;;;;;5055530;28;1286;-66
2021/05/04 04:53:57;;;;;;;;;;;18.60;59.80;;;;;;5074326;28;1087;-66
2021/05/04 04:56:23;;;;;;;;;;;18.50;59.70;;;;;;5073679;28;1108;-67
2021/05/04 04:58:48;;;;;;;;;;;18.60;59.80;;;;;;5074240;28;1123;-66
2021/05/04 05:01:13;;;;;;;;;;;18.60;59.80;;;;;;5074140;28;1270;-66
2021/05/04 05:03:39;;;;;;;;;;;18.60;59.80;;;;;;5084777;28;1973;-67
2021/05/04 05:06:04;;;;;;;;;;;18.50;59.70;;;;;;5094065;28;1078;-66
2021/05/04 05:08:30;;;;;;;;;;;18.60;59.80;;;;;;5094330;28;1137;-67
2021/05/04 05:10:55;;;;;;;;;;;18.60;59.80;;;;;;5093937;28;1291;-66
2021/05/04 05:13:21;;;;;;;;;;;18.60;59.70;;;;;;5094237;28;1126;-66
2021/05/04 05:15:46;;;;;;;;;;;18.60;59.70;;;;;;5073932;28;1272;-66
2021/05/04 05:18:12;;;;;;;;;;;18.60;59.70;;;;;;5073909;28;1159;-66
2021/05/04 05:20:38;;;;;;;;;;;18.60;59.70;;;;;;5075483;28;1274;-66
2021/05/04 05:23:03;;;;;;;;;;;18.60;59.70;;;;;;5093931;28;1915;-65
2021/05/04 05:25:28;;;;;;;;;;;18.60;59.70;;;;;;5075418;28;1159;-66
2021/05/04 05:27:54;;;;;;;;;;;18.60;59.70;;;;;;5093976;28;1165;-66
2021/05/04 05:30:19;;;;;;;;;;;18.60;59.70;;;;;;5093825;28;1297;-66
2021/05/04 05:32:45;;;;;;;;;;;18.60;59.70;;;;;;5093915;28;1126;-67
2021/05/04 05:35:10;;;;;;;;;;;18.60;59.70;;;;;;5093382;28;1119;-66
2021/05/04 05:37:36;;;;;;;;;;;18.60;59.60;;;;;;5093851;28;1137;-67
2021/05/04 05:40:01;;;;;;;;;;;18.60;59.60;;;;;;5093351;28;1357;-66
2021/05/04 05:42:27;;;;;;;;;;;18.60;59.60;;;;;;5093708;28;1913;-66
2021/05/04 05:44:52;;;;;;;;;;;18.60;59.60;;;;;;5093569;28;1193;-66
2021/05/04 05:47:18;;;;;;;;;;;18.60;59.60;;;;;;5093571;28;1174;-64
2021/05/04 05:49:43;;;;;;;;;;;18.60;60.30;;;;;;5093569;28;1274;-65
2021/05/04 05:52:09;;;;;;;;;;;18.60;59.70;;;;;;5093445;28;1184;-65
2021/05/04 05:54:35;;;;;;;;;;;18.60;59.60;;;;;;5093449;28;1110;-65
2021/05/04 05:57:00;;;;;;;;;;;18.60;59.60;;;;;;5093004;28;1071;-64
2021/05/04 05:59:26;;;;;;;;;;;18.60;59.60;;;;;;5093405;28;1181;-64
2021/05/04 06:01:51;;;;;;;;;;;18.60;59.60;;;;;;5093845;28;1079;-66
2021/05/04 06:04:17;;;;;;;;;;;18.60;59.60;;;;;;5070148;28;1886;-66
2021/05/04 06:06:42;;;;;;;;;;;18.60;59.60;;;;;;5072777;28;1068;-66
2021/05/04 06:09:08;;;;;;;;;;;18.60;59.60;;;;;;5054995;28;1147;-65
2021/05/04 06:11:33;;;;;;;;;;;18.60;59.60;;;;;;5072773;28;1280;-66
2021/05/04 06:13:59;;;;;;;;;;;18.60;59.60;;;;;;5072938;28;1054;-66
2021/05/04 06:16:24;;;;;;;;;;;18.60;59.60;;;;;;5072671;28;1237;-66
2021/05/04 06:18:50;;;;;;;;;;;18.60;59.50;;;;;;5055055;28;1139;-66
2021/05/04 06:21:15;;;;;;;;;;;18.60;59.60;;;;;;5079323;28;1370;-66
2021/05/04 06:23:41;;;;;;;;;;;18.60;59.60;;;;;;5092992;28;1902;-66
2021/05/04 06:26:09;;;;;;;;;;;18.60;59.50;;;;;;5092395;28;1051;-66
2021/05/04 06:28:35;;;;;;;;;;;18.60;59.50;;;;;;5074868;28;1158;-66
2021/05/04 06:31:02;;;;;;;;;;;18.60;59.50;;;;;;5093128;28;1199;-66
2021/05/04 06:33:27;;;;;;;;;;;18.60;59.50;;;;;;5056995;28;1899;-64
2021/05/04 06:35:53;;;;;;;;;;;18.60;59.50;;;;;;5063684;28;1405;-65
2021/05/04 06:38:18;;;;;;;;;;;18.60;59.50;;;;;;5081221;28;1116;-66
2021/05/04 06:40:44;;;;;;;;;;;18.60;59.50;;;;;;5088267;23;3741;-68
2021/05/04 06:43:10;;;;;;;;;;;18.60;59.60;;;;;;5069986;28;2097;-70
2021/05/04 06:45:35;;;;;;;;;;;18.60;59.50;;;;;;5043237;28;1397;-70
2021/05/04 06:48:00;;;;;;;;;;;18.60;59.50;;;;;;5053605;28;1640;-70
2021/05/04 06:50:29;;;;;;;;;;;18.60;59.50;;;;;;5072888;28;1683;-69
2021/05/04 06:52:54;;;;;;;;;;;18.60;59.50;;;;;;5054617;28;1321;-70
2021/05/04 06:55:20;;;;;;;;;;;18.60;59.50;;;;;;5072354;28;1459;-70
2021/05/04 06:57:45;;;;;;;;;;;18.60;59.50;;;;;;5072722;28;1363;-70
2021/05/04 07:00:11;;;;;;;;;;;18.60;59.50;;;;;;5072760;28;1348;-70
2021/05/04 07:02:36;;;;;;;;;;;18.70;59.50;;;;;;5066259;28;1890;-70
2021/05/04 07:05:05;;;;;;;;;;;18.60;59.50;;;;;;5052603;28;1670;-70
2021/05/04 07:07:30;;;;;;;;;;;18.60;59.50;;;;;;5034560;28;1626;-70
2021/05/04 07:09:56;;;;;;;;;;;18.60;59.50;;;;;;5052626;28;1542;-70
2021/05/04 07:12:21;;;;;;;;;;;18.60;59.50;;;;;;5034671;28;1614;-69
2021/05/04 07:14:47;;;;;;;;;;;18.70;59.60;;;;;;5052683;28;1634;-67
2021/05/04 07:17:12;;;;;;;;;;;18.70;59.50;;;;;;5056032;28;1402;-70
2021/05/04 07:19:39;;;;;;;;;;;18.60;59.50;;;;;;5053723;28;1358;-71
2021/05/04 07:22:08;;;;;;;;;;;18.70;59.50;;;;;;5073014;28;1897;-71
2021/05/04 07:24:34;;;;;;;;;;;18.70;59.60;;;;;;5058990;28;1648;-71
2021/05/04 07:26:59;;;;;;;;;;;18.70;59.50;;;;;;5075883;28;1571;-69
2021/05/04 07:29:24;;;;;;;;;;;18.60;59.50;;;;;;5076238;28;1424;-69
2021/05/04 07:31:50;;;;;;;;;;;18.60;59.50;;;;;;5057994;28;1476;-69
2021/05/04 07:34:15;;;;;;;;;;;18.70;59.60;;;;;;5076273;28;1360;-69
2021/05/04 07:36:41;;;;;;;;;;;18.70;59.50;;;;;;5075566;28;1618;-69
2021/05/04 07:39:06;;;;;;;;;;;18.60;59.50;;;;;;5075966;28;1383;-69
2021/05/04 07:41:32;;;;;;;;;;;18.70;59.50;;;;;;5057963;28;1647;-70
2021/05/04 07:43:57;;;;;;;;;;;18.70;59.60;;;;;;5041480;28;1906;-68
2021/05/04 07:46:23;;;;;;;;;;;18.70;59.50;;;;;;5075514;28;1387;-69
2021/05/04 07:48:48;;;;;;;;;;;18.70;59.50;;;;;;5075930;28;1710;-70
2021/05/04 07:51:13;;;;;;;;;;;18.70;59.50;;;;;;5036628;28;1687;-70
2021/05/04 07:53:39;;;;;;;;;;;18.70;59.50;;;;;;5037858;28;1433;-70
2021/05/04 07:56:04;;;;;;;;;;;18.70;59.50;;;;;;5055338;28;1660;-70
2021/05/04 07:58:30;;;;;;;;;;;18.70;59.50;;;;;;5055693;28;1703;-69
2021/05/04 08:00:55;;;;;;;;;;;18.70;59.50;;;;;;5037625;28;1594;-69
2021/05/04 08:03:21;;;;;;;;;;;18.70;59.50;;;;;;5055511;28;1898;-68
2021/05/04 08:05:46;;;;;;;;;;;18.70;59.50;;;;;;5037336;28;1786;-68
2021/05/04 08:08:13;;;;;;;;;;;18.70;59.50;;;;;;5055523;28;1342;-68
2021/05/04 08:10:39;;;;;;;;;;;18.70;59.50;;;;;;5055104;28;1416;-68
2021/05/04 08:13:04;;;;;;;;;;;18.70;59.50;;;;;;5055448;28;1377;-68
2021/05/04 08:15:30;;;;;;;;;;;18.70;59.50;;;;;;5054974;28;1562;-68
2021/05/04 08:17:58;;;;;;;;;;;18.70;59.50;;;;;;5037339;28;1422;-68
2021/05/04 08:20:27;;;;;;;;;;;18.70;59.50;;;;;;5054635;28;1300;-68
2021/05/04 08:22:53;;;;;;;;;;;18.70;59.50;;;;;;5057906;28;1965;-69
2021/05/04 08:25:20;;;;;;;;;;;18.70;59.50;;;;;;5074737;28;1349;-68
2021/05/04 08:27:45;;;;;;;;;;;18.70;59.50;;;;;;5074730;28;1677;-68
2021/05/04 08:30:11;;;;;;;;;;;18.70;59.50;;;;;;5075075;28;1427;-68
2021/05/04 08:32:36;;;;;;;;;;;18.70;59.50;;;;;;5075185;28;1365;-69
2021/05/04 08:35:02;;;;;;;;;;;18.70;59.50;;;;;;5074935;28;1465;-69
2021/05/04 08:37:27;;;;;;;;;;;18.70;59.50;;;;;;5074764;28;1199;-68
2021/05/04 08:39:53;;;;;;;;;;;18.70;59.50;;;;;;5074682;28;1341;-68
2021/05/04 08:42:18;;;;;;;;;;;18.70;59.50;;;;;;5074588;28;1902;-68
2021/05/04 08:44:49;;;;;;;;;;;18.70;59.50;;;;;;5074767;28;1427;-69
2021/05/04 08:47:14;;;;;;;;;;;18.70;59.50;;;;;;5040488;28;1721;-70
2021/05/04 08:49:40;;;;;;;;;;;18.70;59.50;;;;;;5074575;28;1646;-70
2021/05/04 08:52:05;;;;;;;;;;;18.70;59.50;;;;;;5056793;28;1618;-70
2021/05/04 08:54:31;;;;;;;;;;;18.70;59.50;;;;;;5056965;28;1760;-70
2021/05/04 08:56:56;;;;;;;;;;;18.70;59.50;;;;;;5074227;28;1396;-70
2021/05/04 08:59:22;;;;;;;;;;;18.70;59.50;;;;;;5056483;28;1730;-70
2021/05/04 09:01:47;;;;;;;;;;;18.70;59.50;;;;;;5056158;28;1700;-68
2021/05/04 09:04:31;;;;;;;;;;;18.70;59.50;;;;;;5054220;28;1991;-68
2021/05/04 09:07:03;;;;;;;;;;;18.70;59.50;;;;;;5052602;28;1349;-69
2021/05/04 09:09:34;;;;;;;;;;;18.70;59.50;;;;;;5036562;28;1702;-68
2021/05/04 09:12:07;;;;;;;;;;;18.70;59.50;;;;;;5054251;28;1552;-69
2021/05/04 09:22:02;;;;;;;;;;;18.70;59.50;;;;;;5064877;28;1454;-67
2021/05/04 09:24:28;;;;;;;;;;;18.70;59.50;;;;;;5044448;28;1898;-67
2021/05/04 09:27:01;;;;;;;;;;;18.70;59.50;;;;;;5057257;28;1561;-67
2021/05/04 09:29:30;;;;;;;;;;;18.70;59.50;;;;;;5065512;28;1366;-67
2021/05/04 09:32:06;;;;;;;;;;;18.70;59.50;;;;;;5053132;28;1964;-68
2021/05/04 09:34:32;;;;;;;;;;;18.70;59.50;;;;;;5046272;28;1128;-66
2021/05/04 09:36:57;;;;;;;;;;;18.70;59.50;;;;;;5036759;28;1720;-67
2021/05/04 09:39:29;;;;;;;;;;;18.70;60.10;;;;;;5051980;28;1649;-68
2021/05/04 09:41:58;;;;;;;;;;;18.70;59.50;;;;;;5048473;28;2192;-68
2021/05/04 09:44:40;;;;;;;;;;;18.70;60.10;;;;;;5035115;28;1901;-67
2021/05/04 09:47:05;;;;;;;;;;;18.70;59.50;;;;;;5052417;28;1990;-67
2021/05/04 09:49:31;;;;;;;;;;;18.70;59.50;;;;;;5049145;28;1336;-67
2021/05/04 09:52:58;;;;;;;;;;;18.70;59.50;;;;;;5041948;28;1896;-67
2021/05/04 09:55:11;;;;;;;;;;;18.70;59.50;;;;;;5037808;28;2045;-67
2021/05/04 09:57:43;;;;;;;;;;;18.70;59.50;;;;;;5050808;28;1762;-67
2021/05/04 10:00:09;;;;;;;;;;;18.70;59.50;;;;;;5040847;28;1801;-67
2021/05/04 10:02:35;;;;;;;;;;;18.70;59.50;;;;;;5051842;28;1961;-67
2021/05/04 10:05:01;;;;;;;;;;;18.70;59.50;;;;;;5052208;28;1571;-67
2021/05/04 10:07:27;;;;;;;;;;;18.70;59.50;;;;;;5034215;28;1512;-67
2021/05/04 10:09:52;;;;;;;;;;;18.70;59.50;;;;;;5034428;28;1088;-67
2021/05/04 10:12:18;;;;;;;;;;;18.70;59.50;;;;;;5034220;28;1517;-67
2021/05/04 10:14:43;;;;;;;;;;;18.70;59.60;;;;;;5052187;28;1456;-67
2021/05/04 10:17:09;;;;;;;;;;;18.70;59.60;;;;;;5050436;28;1642;-68
2021/05/04 10:19:35;;;;;;;;;;;18.70;59.60;;;;;;5049962;28;1605;-67
2021/05/04 10:22:00;;;;;;;;;;;18.70;59.60;;;;;;5051367;28;1589;-68
2021/05/04 10:24:26;;;;;;;;;;;18.70;59.60;;;;;;5054174;28;1955;-67
2021/05/04 10:26:52;;;;;;;;;;;18.70;59.60;;;;;;5052714;28;1531;-67
2021/05/04 10:29:17;;;;;;;;;;;18.70;59.60;;;;;;5034526;28;1369;-67
2021/05/04 10:31:49;;;;;;;;;;;18.70;59.60;;;;;;5013828;28;1735;-67
2021/05/04 10:34:23;;;;;;;;;;;18.70;59.60;;;;;;5042628;28;1492;-67
2021/05/04 10:36:50;;;;;;;;;;;18.60;59.50;;;;;;5051421;28;1431;-67
2021/05/04 10:39:31;;;;;;;;;;;18.70;59.60;;;;;;5051893;28;1422;-67
2021/05/04 10:42:00;;;;;;;;;;;18.60;59.50;;;;;;5051689;28;1537;-67
2021/05/04 10:44:26;;;;;;;;;;;18.70;59.60;;;;;;5051528;28;1902;-67
2021/05/04 10:46:51;;;;;;;;;;;18.70;59.60;;;;;;5041413;28;2326;-67
2021/05/04 10:49:17;;;;;;;;;;;18.70;59.60;;;;;;5049167;28;1465;-67
2021/05/04 10:51:46;;;;;;;;;;;18.70;59.60;;;;;;5062209;28;1461;-67
2021/05/04 10:54:12;;;;;;;;;;;18.70;59.60;;;;;;5036569;28;1324;-67
2021/05/04 10:56:38;;;;;;;;;;;18.70;59.60;;;;;;5043365;28;1933;-67
2021/05/04 10:59:05;;;;;;;;;;;18.70;59.60;;;;;;5033761;28;1477;-69
2021/05/04 11:01:30;;;;;;;;;;;18.70;59.60;;;;;;5059831;28;1488;-68
2021/05/04 11:03:59;;;;;;;;;;;18.70;59.60;;;;;;5069216;28;1950;-68
2021/05/04 11:06:24;;;;;;;;;;;18.60;59.50;;;;;;5075268;28;1656;-68
2021/05/04 11:08:50;;;;;;;;;;;18.60;59.60;;;;;;5055381;28;1483;-68
2021/05/04 11:11:29;;;;;;;;;;;18.70;59.60;;;;;;5043483;28;1367;-68
2021/05/04 11:14:01;;;;;;;;;;;18.70;59.70;;;;;;5051527;28;1993;-66
2021/05/04 11:16:34;;;;;;;;;;;18.70;59.60;;;;;;5047812;28;1339;-66
2021/05/04 11:19:04;;;;;;;;;;;18.70;59.70;;;;;;5053494;28;1697;-66
2021/05/04 11:21:45;;;;;;;;;;;18.70;59.60;;;;;;5055152;28;1371;-67
2021/05/04 11:24:20;;;;;;;;;;;18.60;59.60;;;;;;5037006;28;1890;-68
2021/05/04 11:26:47;;;;;;;;;;;18.70;59.70;;;;;;5054597;28;1386;-68
2021/05/04 11:29:15;;;;;;;;;;;18.70;59.60;;;;;;5037289;28;1286;-69
2021/05/04 11:31:42;;;;;;;;;;;18.60;59.60;;;;;;5051696;28;2160;-68
2021/05/04 11:34:30;;;;;;;;;;;18.70;59.60;;;;;;5035301;28;1549;-70
2021/05/04 11:36:56;;;;;;;;;;;18.60;59.60;;;;;;5046903;28;1322;-69
2021/05/04 11:39:21;;;;;;;;;;;18.60;59.60;;;;;;5036911;28;1679;-69
2021/05/04 11:41:53;;;;;;;;;;;18.70;59.60;;;;;;5067869;28;1274;-69
2021/05/04 11:44:25;;;;;;;;;;;18.70;59.70;;;;;;5067276;28;1964;-69
2021/05/04 11:46:50;;;;;;;;;;;18.70;59.60;;;;;;5073262;28;1331;-69
2021/05/04 11:49:25;;;;;;;;;;;18.70;59.70;;;;;;5074143;28;1348;-70
2021/05/04 11:52:07;;;;;;;;;;;18.70;59.70;;;;;;5074144;28;1476;-69
2021/05/04 11:54:33;;;;;;;;;;;18.70;59.70;;;;;;5051896;28;1691;-69
2021/05/04 11:56:59;;;;;;;;;;;18.60;59.60;;;;;;5036717;28;1404;-69
2021/05/04 11:59:25;;;;;;;;;;;18.60;59.60;;;;;;5055057;28;1197;-69
2021/05/04 12:01:51;;;;;;;;;;;18.70;59.70;;;;;;5036330;28;1653;-69
2021/05/04 12:04:16;;;;;;;;;;;18.60;59.70;;;;;;5058950;28;1898;-69
2021/05/04 12:06:45;;;;;;;;;;;18.60;59.60;;;;;;5074253;28;1651;-70
2021/05/04 12:09:12;;;;;;;;;;;18.60;59.60;;;;;;5056467;28;1603;-69
2021/05/04 12:11:37;;;;;;;;;;;18.70;59.70;;;;;;5056244;28;1393;-69
2021/05/04 12:14:03;;;;;;;;;;;18.70;60.30;;;;;;5068834;28;1363;-68
2021/05/04 12:16:28;;;;;;;;;;;18.70;59.70;;;;;;5053895;28;1645;-69
2021/05/04 12:18:54;;;;;;;;;;;18.60;59.60;;;;;;5054295;28;1550;-68
2021/05/04 12:21:20;;;;;;;;;;;18.60;59.60;;;;;;5041229;28;1485;-70
2021/05/04 12:23:45;;;;;;;;;;;18.70;59.70;;;;;;5054117;28;1901;-70
2021/05/04 12:26:16;;;;;;;;;;;18.70;59.70;;;;;;5047387;28;1401;-70
2021/05/04 12:28:55;;;;;;;;;;;18.70;59.70;;;;;;5055862;28;1468;-70
2021/05/04 12:31:22;;;;;;;;;;;18.60;59.70;;;;;;5056132;28;1637;-69
2021/05/04 12:33:48;;;;;;;;;;;18.70;59.70;;;;;;5056233;28;1467;-70
2021/05/04 12:36:20;;;;;;;;;;;18.60;60.30;;;;;;5055670;28;1568;-70
2021/05/04 12:38:51;;;;;;;;;;;18.60;59.60;;;;;;5073934;28;1345;-70
2021/05/04 12:41:19;;;;;;;;;;;18.60;59.70;;;;;;5082079;22;2306;-64
2021/05/04 12:46:44;;;;;;;;;;;18.60;59.70;;;;;;5053402;28;613;-64
2021/05/04 12:49:09;;;;;;;;;;;18.60;59.70;;;;;;5035755;28;1169;-64
2021/05/04 12:51:39;;;;;;;;;;;18.60;59.70;;;;;;5022626;28;1236;-64
2021/05/04 12:54:06;;;;;;;;;;;18.70;59.70;;;;;;5036619;28;1369;-64
2021/05/04 12:56:32;;;;;;;;;;;18.60;59.70;;;;;;5053250;28;1661;-64
2021/05/04 12:58:59;;;;;;;;;;;18.60;59.70;;;;;;5040024;28;926;-64
2021/05/04 13:01:31;;;;;;;;;;;18.70;59.70;;;;;;5053515;28;1365;-65
2021/05/04 13:03:57;;;;;;;;;;;18.60;59.70;;;;;;5052011;28;1957;-65
2021/05/04 13:06:30;;;;;;;;;;;18.60;59.60;;;;;;5033326;28;1154;-65
2021/05/04 13:09:03;;;;;;;;;;;18.60;59.60;;;;;;5031302;28;1373;-64
2021/05/04 13:30:41;;;;;;;;;;;18.70;59.70;;;;;;5053623;28;1346;-65
2021/05/04 13:33:09;;;;;;;;;;;18.70;59.70;;;;;;5035811;28;1644;-66
2021/05/04 13:35:38;;;;;;;;;;;18.60;59.70;;;;;;5053338;28;1540;-66
2021/05/04 13:38:09;;;;;;;;;;;18.60;59.70;;;;;;5053660;28;1655;-66
2021/05/04 13:48:47;;;;;;;;;;;18.60;59.70;;;;;;5053493;28;1039;-65
2021/05/04 13:51:12;;;;;;;;;;;18.70;59.70;;;;;;5053214;28;1233;-65
2021/05/04 13:53:38;;;;;;;;;;;18.60;59.70;;;;;;5053265;28;1095;-66
2021/05/04 13:56:03;;;;;;;;;;;18.70;59.70;;;;;;5052837;28;1079;-66
2021/05/04 13:58:31;;;;;;;;;;;18.70;59.70;;;;;;5022800;28;1107;-65
2021/05/04 14:04:02;;;;;;;;;;;18.70;59.70;;;;;;5051637;28;1960;-66
2021/05/04 14:14:54;;;;;;;;;;;18.70;59.70;;;;;;5025612;28;945;-66
2021/05/04 14:25:49;;;;;;;;;;;18.70;59.60;;;;;;5052587;28;1075;-65
2021/05/04 14:28:11;;;;;;;;;;;18.70;59.60;;;;;;5052181;28;1130;-66
2021/05/04 14:30:36;;;;;;;;;;;18.70;59.60;;;;;;5052769;28;1107;-65
2021/05/04 14:33:04;;;;;;;;;;;18.70;59.60;;;;;;5052490;28;1291;-65
2021/05/04 14:35:37;;;;;;;;;;;18.70;59.60;;;;;;5052167;28;1130;-65
2021/05/04 14:41:02;;;;;;;;;;;18.70;59.60;;;;;;5052750;28;1215;-65
2021/05/04 14:57:40;;;;;;;;;;;18.70;59.70;;;;;;5032383;28;1084;-64
2021/05/04 15:00:56;;;;;;;;;;;18.70;59.60;;;;;;5016710;28;1155;-64
2021/05/04 15:02:52;;;;;;;;;;;18.70;59.60;;;;;;5020601;28;1972;-64
2021/05/04 15:05:20;;;;;;;;;;;18.70;59.60;;;;;;5032335;28;1178;-64
2021/05/04 15:07:45;;;;;;;;;;;18.70;59.60;;;;;;5032200;28;1206;-64
2021/05/04 15:10:11;;;;;;;;;;;18.70;59.60;;;;;;5032515;28;1439;-65
2021/05/04 15:12:36;;;;;;;;;;;18.70;59.60;;;;;;5032318;28;1313;-66
2021/05/04 15:15:04;;;;;;;;;;;18.70;59.60;;;;;;5027662;28;1246;-65
2021/05/04 15:20:54;;;;;;;;;;;18.70;59.60;;;;;;5023603;28;1228;-66
2021/05/04 15:23:19;;;;;;;;;;;18.70;59.60;;;;;;5052004;28;1918;-66
2021/05/04 15:25:45;;;;;;;;;;;18.70;59.60;;;;;;5052152;28;1040;-66
2021/05/04 15:28:10;;;;;;;;;;;18.70;59.60;;;;;;5052068;28;1083;-66
2021/05/04 15:30:36;;;;;;;;;;;18.70;59.60;;;;;;5052202;28;1138;-65
2021/05/04 15:33:03;;;;;;;;;;;18.70;59.60;;;;;;5052059;28;1193;-66
2021/05/04 15:35:32;;;;;;;;;;;18.70;59.60;;;;;;5051955;28;1059;-66
2021/05/04 15:37:58;;;;;;;;;;;18.70;59.60;;;;;;5037603;28;1067;-65
2021/05/04 15:40:23;;;;;;;;;;;18.70;59.60;;;;;;5055852;28;1059;-65
2021/05/04 15:42:49;;;;;;;;;;;18.70;59.60;;;;;;5055498;28;1902;-65
2021/05/04 15:45:14;;;;;;;;;;;18.70;59.60;;;;;;5055299;28;1056;-66